sensor_id;sensor_type;location;lat;lon;timestamp;P1;durP1;ratioP1;P2;durP2;ratioP2
45762;SDS011;37512;52.408;13.356;2023-07-29T00:00:06;13.00;;;8.48;;
45762;SDS011;37512;52.408;13.356;2023-07-29T00:04:09;12.70;;;8.27;;
45762;SDS011;37512;52.408;13.356;2023-07-29T00:08:10;10.88;;;7.90;;
45762;SDS011;37512;52.408;13.356;2023-07-29T00:12:12;14.25;;;8.98;;
45762;SDS011;37512;52.408;13.356;2023-07-29T00:16:14;13.18;;;7.22;;
45762;SDS011;37512;52.408;13.356;2023-07-29T00:20:18;8.75;;;7.85;;
45762;SDS011;37512;52.408;13.356;2023-07-29T00:24:19;11.25;;;7.60;;
45762;SDS011;37512;52.408;13.356;2023-07-29T00:28:21;11.55;;;7.85;;
45762;SDS011;37512;52.408;13.356;2023-07-29T00:32:24;14.43;;;8.02;;
45762;SDS011;37512;52.408;13.356;2023-07-29T00:36:25;10.68;;;8.30;;
45762;SDS011;37512;52.408;13.356;2023-07-29T00:40:28;10.88;;;7.78;;
45762;SDS011;37512;52.408;13.356;2023-07-29T00:44:31;10.50;;;7.68;;
45762;SDS011;37512;52.408;13.356;2023-07-29T00:48:35;12.75;;;7.50;;
45762;SDS011;37512;52.408;13.356;2023-07-29T00:52:38;8.68;;;7.18;;
45762;SDS011;37512;52.408;13.356;2023-07-29T00:56:39;9.90;;;7.63;;
45762;SDS011;37512;52.408;13.356;2023-07-29T01:00:41;9.75;;;6.55;;
45762;SDS011;37512;52.408;13.356;2023-07-29T01:04:43;7.45;;;6.53;;
45762;SDS011;37512;52.408;13.356;2023-07-29T01:09:07;8.90;;;6.45;;
45762;SDS011;37512;52.408;13.356;2023-07-29T01:13:31;12.00;;;6.60;;
45762;SDS011;37512;52.408;13.356;2023-07-29T01:17:40;8.45;;;6.78;;
45762;SDS011;37512;52.408;13.356;2023-07-29T01:21:44;10.80;;;6.68;;
45762;SDS011;37512;52.408;13.356;2023-07-29T01:25:46;11.25;;;6.35;;
45762;SDS011;37512;52.408;13.356;2023-07-29T01:29:48;10.07;;;6.72;;
45762;SDS011;37512;52.408;13.356;2023-07-29T01:33:53;11.93;;;6.97;;
45762;SDS011;37512;52.408;13.356;2023-07-29T01:38:05;11.00;;;7.10;;
45762;SDS011;37512;52.408;13.356;2023-07-29T01:42:10;8.13;;;6.18;;
45762;SDS011;37512;52.408;13.356;2023-07-29T01:46:13;12.48;;;7.47;;
45762;SDS011;37512;52.408;13.356;2023-07-29T01:50:16;7.88;;;6.15;;
45762;SDS011;37512;52.408;13.356;2023-07-29T01:54:17;8.80;;;6.00;;
45762;SDS011;37512;52.408;13.356;2023-07-29T01:58:19;6.78;;;6.07;;
45762;SDS011;37512;52.408;13.356;2023-07-29T02:02:20;7.95;;;5.75;;
45762;SDS011;37512;52.408;13.356;2023-07-29T02:06:22;10.20;;;6.05;;
45762;SDS011;37512;52.408;13.356;2023-07-29T02:10:24;11.63;;;6.00;;
45762;SDS011;37512;52.408;13.356;2023-07-29T02:14:25;7.38;;;5.15;;
45762;SDS011;37512;52.408;13.356;2023-07-29T02:18:27;10.05;;;6.43;;
45762;SDS011;37512;52.408;13.356;2023-07-29T02:22:29;9.32;;;6.20;;
45762;SDS011;37512;52.408;13.356;2023-07-29T02:26:31;12.30;;;6.55;;
45762;SDS011;37512;52.408;13.356;2023-07-29T02:30:32;9.00;;;6.78;;
45762;SDS011;37512;52.408;13.356;2023-07-29T02:34:34;11.93;;;6.38;;
45762;SDS011;37512;52.408;13.356;2023-07-29T02:38:35;10.88;;;6.95;;
45762;SDS011;37512;52.408;13.356;2023-07-29T02:42:37;7.78;;;6.65;;
45762;SDS011;37512;52.408;13.356;2023-07-29T02:46:39;10.20;;;6.43;;
45762;SDS011;37512;52.408;13.356;2023-07-29T02:50:41;8.63;;;6.15;;
45762;SDS011;37512;52.408;13.356;2023-07-29T02:54:42;12.20;;;6.53;;
45762;SDS011;37512;52.408;13.356;2023-07-29T02:58:44;10.38;;;7.65;;
45762;SDS011;37512;52.408;13.356;2023-07-29T03:02:45;9.13;;;7.43;;
45762;SDS011;37512;52.408;13.356;2023-07-29T03:06:47;7.70;;;6.82;;
45762;SDS011;37512;52.408;13.356;2023-07-29T03:10:49;9.02;;;6.30;;
45762;SDS011;37512;52.408;13.356;2023-07-29T03:14:51;9.90;;;7.18;;
45762;SDS011;37512;52.408;13.356;2023-07-29T03:18:52;11.90;;;8.00;;
45762;SDS011;37512;52.408;13.356;2023-07-29T03:22:54;9.70;;;7.70;;
45762;SDS011;37512;52.408;13.356;2023-07-29T03:26:55;10.93;;;7.65;;
45762;SDS011;37512;52.408;13.356;2023-07-29T03:30:57;10.27;;;8.27;;
45762;SDS011;37512;52.408;13.356;2023-07-29T03:34:59;9.48;;;7.43;;
45762;SDS011;37512;52.408;13.356;2023-07-29T03:39:00;8.75;;;7.38;;
45762;SDS011;37512;52.408;13.356;2023-07-29T03:43:04;9.75;;;7.70;;
45762;SDS011;37512;52.408;13.356;2023-07-29T03:47:06;9.43;;;7.43;;
45762;SDS011;37512;52.408;13.356;2023-07-29T03:51:08;11.18;;;7.97;;
45762;SDS011;37512;52.408;13.356;2023-07-29T03:55:09;8.70;;;7.45;;
45762;SDS011;37512;52.408;13.356;2023-07-29T03:59:11;8.07;;;7.07;;
45762;SDS011;37512;52.408;13.356;2023-07-29T04:03:13;9.63;;;7.70;;
45762;SDS011;37512;52.408;13.356;2023-07-29T04:07:15;8.75;;;7.25;;
45762;SDS011;37512;52.408;13.356;2023-07-29T04:11:16;9.48;;;7.63;;
45762;SDS011;37512;52.408;13.356;2023-07-29T04:15:18;8.93;;;7.60;;
45762;SDS011;37512;52.408;13.356;2023-07-29T04:19:20;8.73;;;6.75;;
45762;SDS011;37512;52.408;13.356;2023-07-29T04:23:21;11.48;;;7.20;;
45762;SDS011;37512;52.408;13.356;2023-07-29T04:27:23;9.65;;;8.02;;
45762;SDS011;37512;52.408;13.356;2023-07-29T04:31:24;16.13;;;8.07;;
45762;SDS011;37512;52.408;13.356;2023-07-29T04:35:26;11.43;;;8.52;;
45762;SDS011;37512;52.408;13.356;2023-07-29T04:39:28;9.07;;;7.38;;
45762;SDS011;37512;52.408;13.356;2023-07-29T04:43:30;8.95;;;7.53;;
45762;SDS011;37512;52.408;13.356;2023-07-29T04:47:33;14.13;;;8.15;;
45762;SDS011;37512;52.408;13.356;2023-07-29T04:51:34;11.98;;;8.05;;
45762;SDS011;37512;52.408;13.356;2023-07-29T04:55:36;8.35;;;7.45;;
45762;SDS011;37512;52.408;13.356;2023-07-29T04:59:37;8.43;;;7.32;;
45762;SDS011;37512;52.408;13.356;2023-07-29T05:03:39;11.32;;;8.27;;
45762;SDS011;37512;52.408;13.356;2023-07-29T05:07:41;9.82;;;7.97;;
45762;SDS011;37512;52.408;13.356;2023-07-29T05:11:43;9.35;;;7.80;;
45762;SDS011;37512;52.408;13.356;2023-07-29T05:15:47;10.25;;;8.60;;
45762;SDS011;37512;52.408;13.356;2023-07-29T05:19:49;12.02;;;8.65;;
45762;SDS011;37512;52.408;13.356;2023-07-29T05:23:50;9.38;;;8.43;;
45762;SDS011;37512;52.408;13.356;2023-07-29T05:27:52;9.18;;;8.10;;
45762;SDS011;37512;52.408;13.356;2023-07-29T05:31:54;10.27;;;9.18;;
45762;SDS011;37512;52.408;13.356;2023-07-29T05:35:55;8.63;;;7.43;;
45762;SDS011;37512;52.408;13.356;2023-07-29T05:39:57;8.52;;;7.63;;
45762;SDS011;37512;52.408;13.356;2023-07-29T05:43:59;9.00;;;8.10;;
45762;SDS011;37512;52.408;13.356;2023-07-29T05:48:00;8.52;;;7.63;;
45762;SDS011;37512;52.408;13.356;2023-07-29T05:52:02;9.43;;;7.22;;
45762;SDS011;37512;52.408;13.356;2023-07-29T05:56:04;8.35;;;7.25;;
45762;SDS011;37512;52.408;13.356;2023-07-29T06:00:05;8.70;;;6.90;;
45762;SDS011;37512;52.408;13.356;2023-07-29T06:04:07;8.85;;;6.82;;
45762;SDS011;37512;52.408;13.356;2023-07-29T06:08:09;8.45;;;6.70;;
45762;SDS011;37512;52.408;13.356;2023-07-29T06:12:12;8.38;;;7.50;;
45762;SDS011;37512;52.408;13.356;2023-07-29T06:16:14;9.65;;;5.80;;
45762;SDS011;37512;52.408;13.356;2023-07-29T06:20:16;6.53;;;5.65;;
45762;SDS011;37512;52.408;13.356;2023-07-29T06:24:17;6.90;;;5.82;;
45762;SDS011;37512;52.408;13.356;2023-07-29T06:28:19;7.35;;;6.20;;
45762;SDS011;37512;52.408;13.356;2023-07-29T06:32:20;6.03;;;5.40;;
45762;SDS011;37512;52.408;13.356;2023-07-29T06:36:22;6.10;;;5.40;;
45762;SDS011;37512;52.408;13.356;2023-07-29T06:40:23;6.60;;;5.45;;
45762;SDS011;37512;52.408;13.356;2023-07-29T06:44:26;6.07;;;4.57;;
45762;SDS011;37512;52.408;13.356;2023-07-29T06:48:27;8.35;;;3.80;;
45762;SDS011;37512;52.408;13.356;2023-07-29T06:52:29;5.85;;;4.47;;
45762;SDS011;37512;52.408;13.356;2023-07-29T06:56:30;5.50;;;4.25;;
45762;SDS011;37512;52.408;13.356;2023-07-29T07:00:32;5.50;;;3.88;;
45762;SDS011;37512;52.408;13.356;2023-07-29T07:04:34;4.75;;;3.83;;
45762;SDS011;37512;52.408;13.356;2023-07-29T07:08:35;4.80;;;3.40;;
45762;SDS011;37512;52.408;13.356;2023-07-29T07:12:37;3.90;;;3.42;;
45762;SDS011;37512;52.408;13.356;2023-07-29T07:16:39;4.88;;;2.85;;
45762;SDS011;37512;52.408;13.356;2023-07-29T07:20:41;4.22;;;3.40;;
45762;SDS011;37512;52.408;13.356;2023-07-29T07:24:42;4.07;;;3.50;;
45762;SDS011;37512;52.408;13.356;2023-07-29T07:28:45;5.07;;;3.40;;
45762;SDS011;37512;52.408;13.356;2023-07-29T07:32:47;4.25;;;3.30;;
45762;SDS011;37512;52.408;13.356;2023-07-29T07:36:49;4.00;;;3.58;;
45762;SDS011;37512;52.408;13.356;2023-07-29T07:40:54;3.88;;;3.28;;
45762;SDS011;37512;52.408;13.356;2023-07-29T07:44:56;4.55;;;3.45;;
45762;SDS011;37512;52.408;13.356;2023-07-29T07:48:58;3.47;;;2.90;;
45762;SDS011;37512;52.408;13.356;2023-07-29T07:53:00;5.45;;;3.13;;
45762;SDS011;37512;52.408;13.356;2023-07-29T07:57:01;4.15;;;3.10;;
45762;SDS011;37512;52.408;13.356;2023-07-29T08:01:03;4.47;;;3.22;;
45762;SDS011;37512;52.408;13.356;2023-07-29T08:05:07;3.42;;;3.13;;
45762;SDS011;37512;52.408;13.356;2023-07-29T08:09:09;3.97;;;3.20;;
45762;SDS011;37512;52.408;13.356;2023-07-29T08:13:11;3.88;;;3.47;;
45762;SDS011;37512;52.408;13.356;2023-07-29T08:17:13;4.75;;;2.83;;
45762;SDS011;37512;52.408;13.356;2023-07-29T08:21:14;3.72;;;2.95;;
45762;SDS011;37512;52.408;13.356;2023-07-29T08:25:16;3.13;;;2.83;;
45762;SDS011;37512;52.408;13.356;2023-07-29T08:29:18;4.68;;;2.80;;
45762;SDS011;37512;52.408;13.356;2023-07-29T08:33:19;6.20;;;3.10;;
45762;SDS011;37512;52.408;13.356;2023-07-29T08:37:21;6.78;;;3.00;;
45762;SDS011;37512;52.408;13.356;2023-07-29T08:41:26;2.85;;;2.50;;
45762;SDS011;37512;52.408;13.356;2023-07-29T08:45:34;4.43;;;2.30;;
45762;SDS011;37512;52.408;13.356;2023-07-29T08:49:37;3.40;;;2.80;;
45762;SDS011;37512;52.408;13.356;2023-07-29T08:53:39;3.72;;;2.60;;
45762;SDS011;37512;52.408;13.356;2023-07-29T08:57:41;3.35;;;2.83;;
45762;SDS011;37512;52.408;13.356;2023-07-29T09:01:43;2.90;;;2.50;;
45762;SDS011;37512;52.408;13.356;2023-07-29T09:05:45;2.83;;;2.28;;
45762;SDS011;37512;52.408;13.356;2023-07-29T09:09:47;2.50;;;1.90;;
45762;SDS011;37512;52.408;13.356;2023-07-29T09:13:48;3.42;;;2.40;;
45762;SDS011;37512;52.408;13.356;2023-07-29T09:17:51;3.67;;;2.67;;
45762;SDS011;37512;52.408;13.356;2023-07-29T09:21:53;3.72;;;2.60;;
45762;SDS011;37512;52.408;13.356;2023-07-29T09:26:02;2.50;;;1.95;;
45762;SDS011;37512;52.408;13.356;2023-07-29T09:30:04;3.45;;;2.20;;
45762;SDS011;37512;52.408;13.356;2023-07-29T09:34:06;2.50;;;2.00;;
45762;SDS011;37512;52.408;13.356;2023-07-29T09:38:08;2.90;;;1.90;;
45762;SDS011;37512;52.408;13.356;2023-07-29T09:42:11;3.13;;;2.00;;
45762;SDS011;37512;52.408;13.356;2023-07-29T09:46:18;2.45;;;1.95;;
45762;SDS011;37512;52.408;13.356;2023-07-29T09:50:26;2.92;;;1.95;;
45762;SDS011;37512;52.408;13.356;2023-07-29T09:54:28;4.07;;;2.05;;
45762;SDS011;37512;52.408;13.356;2023-07-29T09:58:32;3.03;;;2.33;;
45762;SDS011;37512;52.408;13.356;2023-07-29T10:02:34;2.17;;;1.85;;
45762;SDS011;37512;52.408;13.356;2023-07-29T10:06:36;2.67;;;1.90;;
45762;SDS011;37512;52.408;13.356;2023-07-29T10:10:42;3.05;;;1.88;;
45762;SDS011;37512;52.408;13.356;2023-07-29T10:14:44;3.92;;;2.17;;
45762;SDS011;37512;52.408;13.356;2023-07-29T10:18:49;3.65;;;1.88;;
45762;SDS011;37512;52.408;13.356;2023-07-29T10:22:53;2.67;;;2.10;;
45762;SDS011;37512;52.408;13.356;2023-07-29T10:27:00;4.20;;;1.60;;
45762;SDS011;37512;52.408;13.356;2023-07-29T10:31:03;4.60;;;1.40;;
45762;SDS011;37512;52.408;13.356;2023-07-29T10:35:06;2.53;;;1.67;;
45762;SDS011;37512;52.408;13.356;2023-07-29T10:39:08;2.15;;;1.58;;
45762;SDS011;37512;52.408;13.356;2023-07-29T10:43:12;2.00;;;1.42;;
45762;SDS011;37512;52.408;13.356;2023-07-29T10:47:16;2.08;;;1.50;;
45762;SDS011;37512;52.408;13.356;2023-07-29T10:55:34;2.15;;;1.40;;
45762;SDS011;37512;52.408;13.356;2023-07-29T10:59:40;3.47;;;1.55;;
45762;SDS011;37512;52.408;13.356;2023-07-29T11:03:41;2.90;;;1.60;;
45762;SDS011;37512;52.408;13.356;2023-07-29T11:08:02;2.40;;;1.75;;
45762;SDS011;37512;52.408;13.356;2023-07-29T11:12:46;4.97;;;2.30;;
45762;SDS011;37512;52.408;13.356;2023-07-29T11:16:49;4.32;;;2.60;;
45762;SDS011;37512;52.408;13.356;2023-07-29T11:20:51;3.80;;;2.58;;
45762;SDS011;37512;52.408;13.356;2023-07-29T11:24:55;8.70;;;2.40;;
45762;SDS011;37512;52.408;13.356;2023-07-29T11:29:18;4.45;;;3.38;;
45762;SDS011;37512;52.408;13.356;2023-07-29T11:33:40;5.43;;;3.00;;
45762;SDS011;37512;52.408;13.356;2023-07-29T11:38:07;4.93;;;4.05;;
45762;SDS011;37512;52.408;13.356;2023-07-29T11:42:32;9.05;;;3.15;;
45762;SDS011;37512;52.408;13.356;2023-07-29T11:46:55;3.70;;;2.90;;
45762;SDS011;37512;52.408;13.356;2023-07-29T11:51:17;4.75;;;3.20;;
45762;SDS011;37512;52.408;13.356;2023-07-29T11:56:20;5.50;;;3.13;;
45762;SDS011;37512;52.408;13.356;2023-07-29T12:01:21;5.40;;;4.00;;
45762;SDS011;37512;52.408;13.356;2023-07-29T12:06:23;7.68;;;5.75;;
45762;SDS011;37512;52.408;13.356;2023-07-29T12:11:23;4.97;;;3.53;;
45762;SDS011;37512;52.408;13.356;2023-07-29T12:16:24;4.20;;;3.80;;
45762;SDS011;37512;52.408;13.356;2023-07-29T12:21:24;6.70;;;4.53;;
45762;SDS011;37512;52.408;13.356;2023-07-29T12:26:28;4.65;;;4.03;;
45762;SDS011;37512;52.408;13.356;2023-07-29T12:31:31;6.25;;;3.60;;
45762;SDS011;37512;52.408;13.356;2023-07-29T12:36:42;8.52;;;3.70;;
45762;SDS011;37512;52.408;13.356;2023-07-29T12:40:44;5.50;;;3.22;;
45762;SDS011;37512;52.408;13.356;2023-07-29T12:44:46;3.38;;;2.15;;
45762;SDS011;37512;52.408;13.356;2023-07-29T12:48:47;3.83;;;2.33;;
45762;SDS011;37512;52.408;13.356;2023-07-29T12:52:49;3.10;;;2.20;;
45762;SDS011;37512;52.408;13.356;2023-07-29T12:56:51;2.67;;;1.60;;
45762;SDS011;37512;52.408;13.356;2023-07-29T13:00:52;4.45;;;2.20;;
45762;SDS011;37512;52.408;13.356;2023-07-29T13:04:55;1.90;;;1.65;;
45762;SDS011;37512;52.408;13.356;2023-07-29T13:08:57;2.78;;;1.98;;
45762;SDS011;37512;52.408;13.356;2023-07-29T13:12:58;2.90;;;2.10;;
45762;SDS011;37512;52.408;13.356;2023-07-29T13:17:00;3.05;;;1.67;;
45762;SDS011;37512;52.408;13.356;2023-07-29T13:21:02;2.63;;;1.75;;
45762;SDS011;37512;52.408;13.356;2023-07-29T13:25:03;2.40;;;1.90;;
45762;SDS011;37512;52.408;13.356;2023-07-29T13:29:05;2.83;;;2.25;;
45762;SDS011;37512;52.408;13.356;2023-07-29T13:33:10;5.93;;;2.70;;
45762;SDS011;37512;52.408;13.356;2023-07-29T13:37:11;3.53;;;2.38;;
45762;SDS011;37512;52.408;13.356;2023-07-29T13:41:13;3.85;;;2.10;;
45762;SDS011;37512;52.408;13.356;2023-07-29T13:45:14;2.15;;;1.60;;
45762;SDS011;37512;52.408;13.356;2023-07-29T13:49:16;2.15;;;1.80;;
45762;SDS011;37512;52.408;13.356;2023-07-29T13:53:18;2.00;;;1.10;;
45762;SDS011;37512;52.408;13.356;2023-07-29T13:57:20;2.08;;;1.42;;
45762;SDS011;37512;52.408;13.356;2023-07-29T14:01:21;2.72;;;1.90;;
45762;SDS011;37512;52.408;13.356;2023-07-29T14:05:23;1.52;;;1.25;;
45762;SDS011;37512;52.408;13.356;2023-07-29T14:09:25;3.25;;;2.10;;
45762;SDS011;37512;52.408;13.356;2023-07-29T14:13:26;3.60;;;1.85;;
45762;SDS011;37512;52.408;13.356;2023-07-29T14:17:28;2.35;;;1.80;;
45762;SDS011;37512;52.408;13.356;2023-07-29T14:21:30;1.67;;;1.45;;
45762;SDS011;37512;52.408;13.356;2023-07-29T14:25:31;2.60;;;1.42;;
45762;SDS011;37512;52.408;13.356;2023-07-29T14:29:33;2.10;;;1.55;;
45762;SDS011;37512;52.408;13.356;2023-07-29T14:33:35;2.47;;;1.83;;
45762;SDS011;37512;52.408;13.356;2023-07-29T14:37:36;2.53;;;1.50;;
45762;SDS011;37512;52.408;13.356;2023-07-29T14:41:38;2.42;;;1.80;;
45762;SDS011;37512;52.408;13.356;2023-07-29T14:45:40;2.88;;;1.60;;
45762;SDS011;37512;52.408;13.356;2023-07-29T14:49:41;1.98;;;1.40;;
45762;SDS011;37512;52.408;13.356;2023-07-29T14:53:43;1.88;;;1.50;;
45762;SDS011;37512;52.408;13.356;2023-07-29T14:57:45;2.80;;;1.88;;
45762;SDS011;37512;52.408;13.356;2023-07-29T15:01:47;1.77;;;1.50;;
45762;SDS011;37512;52.408;13.356;2023-07-29T15:05:48;2.88;;;1.70;;
45762;SDS011;37512;52.408;13.356;2023-07-29T15:09:50;4.63;;;1.88;;
45762;SDS011;37512;52.408;13.356;2023-07-29T15:13:52;1.90;;;1.42;;
45762;SDS011;37512;52.408;13.356;2023-07-29T15:17:53;2.35;;;1.70;;
45762;SDS011;37512;52.408;13.356;2023-07-29T15:21:55;2.03;;;1.77;;
45762;SDS011;37512;52.408;13.356;2023-07-29T15:25:56;1.73;;;1.50;;
45762;SDS011;37512;52.408;13.356;2023-07-29T15:29:58;2.28;;;1.98;;
45762;SDS011;37512;52.408;13.356;2023-07-29T15:34:00;3.90;;;2.70;;
45762;SDS011;37512;52.408;13.356;2023-07-29T15:38:01;5.88;;;2.90;;
45762;SDS011;37512;52.408;13.356;2023-07-29T15:42:03;3.25;;;2.30;;
45762;SDS011;37512;52.408;13.356;2023-07-29T15:46:04;3.60;;;1.80;;
45762;SDS011;37512;52.408;13.356;2023-07-29T15:50:06;3.15;;;1.45;;
45762;SDS011;37512;52.408;13.356;2023-07-29T15:54:08;2.80;;;1.83;;
45762;SDS011;37512;52.408;13.356;2023-07-29T15:58:10;1.90;;;1.35;;
45762;SDS011;37512;52.408;13.356;2023-07-29T16:02:11;2.85;;;1.50;;
45762;SDS011;37512;52.408;13.356;2023-07-29T16:06:13;1.98;;;1.52;;
45762;SDS011;37512;52.408;13.356;2023-07-29T16:10:14;3.72;;;1.77;;
45762;SDS011;37512;52.408;13.356;2023-07-29T16:14:16;3.20;;;1.85;;
45762;SDS011;37512;52.408;13.356;2023-07-29T16:18:17;2.35;;;1.60;;
45762;SDS011;37512;52.408;13.356;2023-07-29T16:22:19;3.97;;;1.58;;
45762;SDS011;37512;52.408;13.356;2023-07-29T16:26:20;3.05;;;1.52;;
45762;SDS011;37512;52.408;13.356;2023-07-29T16:30:22;3.88;;;1.80;;
45762;SDS011;37512;52.408;13.356;2023-07-29T16:34:24;4.57;;;1.80;;
45762;SDS011;37512;52.408;13.356;2023-07-29T16:38:25;2.45;;;1.55;;
45762;SDS011;37512;52.408;13.356;2023-07-29T16:42:28;2.95;;;1.75;;
45762;SDS011;37512;52.408;13.356;2023-07-29T16:46:30;2.55;;;1.70;;
45762;SDS011;37512;52.408;13.356;2023-07-29T16:50:31;4.03;;;1.65;;
45762;SDS011;37512;52.408;13.356;2023-07-29T16:54:33;4.25;;;2.50;;
45762;SDS011;37512;52.408;13.356;2023-07-29T16:58:35;3.17;;;2.08;;
45762;SDS011;37512;52.408;13.356;2023-07-29T17:02:36;5.93;;;1.90;;
45762;SDS011;37512;52.408;13.356;2023-07-29T17:06:38;3.63;;;1.92;;
45762;SDS011;37512;52.408;13.356;2023-07-29T17:10:40;2.42;;;1.80;;
45762;SDS011;37512;52.408;13.356;2023-07-29T17:14:42;2.45;;;1.90;;
45762;SDS011;37512;52.408;13.356;2023-07-29T17:18:43;8.75;;;5.43;;
45762;SDS011;37512;52.408;13.356;2023-07-29T17:22:45;3.03;;;1.85;;
45762;SDS011;37512;52.408;13.356;2023-07-29T17:26:46;3.80;;;1.67;;
45762;SDS011;37512;52.408;13.356;2023-07-29T17:30:51;3.55;;;1.73;;
45762;SDS011;37512;52.408;13.356;2023-07-29T17:34:52;2.40;;;1.60;;
45762;SDS011;37512;52.408;13.356;2023-07-29T17:38:54;4.25;;;2.33;;
45762;SDS011;37512;52.408;13.356;2023-07-29T17:42:55;4.38;;;2.63;;
45762;SDS011;37512;52.408;13.356;2023-07-29T17:46:57;3.67;;;2.05;;
45762;SDS011;37512;52.408;13.356;2023-07-29T17:50:58;2.75;;;1.60;;
45762;SDS011;37512;52.408;13.356;2023-07-29T17:55:00;3.55;;;2.55;;
45762;SDS011;37512;52.408;13.356;2023-07-29T17:59:01;4.38;;;2.45;;
45762;SDS011;37512;52.408;13.356;2023-07-29T18:03:03;3.20;;;1.73;;
45762;SDS011;37512;52.408;13.356;2023-07-29T18:07:05;5.93;;;2.30;;
45762;SDS011;37512;52.408;13.356;2023-07-29T18:11:06;2.33;;;2.08;;
45762;SDS011;37512;52.408;13.356;2023-07-29T18:15:09;3.72;;;2.35;;
45762;SDS011;37512;52.408;13.356;2023-07-29T18:19:11;3.17;;;2.30;;
45762;SDS011;37512;52.408;13.356;2023-07-29T18:23:12;3.42;;;2.10;;
45762;SDS011;37512;52.408;13.356;2023-07-29T18:27:16;5.93;;;1.85;;
45762;SDS011;37512;52.408;13.356;2023-07-29T18:31:17;5.47;;;2.50;;
45762;SDS011;37512;52.408;13.356;2023-07-29T18:35:19;3.70;;;2.17;;
45762;SDS011;37512;52.408;13.356;2023-07-29T18:39:22;5.05;;;2.30;;
45762;SDS011;37512;52.408;13.356;2023-07-29T18:43:23;3.50;;;2.40;;
45762;SDS011;37512;52.408;13.356;2023-07-29T18:47:26;4.55;;;3.05;;
45762;SDS011;37512;52.408;13.356;2023-07-29T18:51:27;4.82;;;2.97;;
45762;SDS011;37512;52.408;13.356;2023-07-29T18:55:29;7.15;;;3.03;;
45762;SDS011;37512;52.408;13.356;2023-07-29T18:59:30;4.32;;;3.35;;
45762;SDS011;37512;52.408;13.356;2023-07-29T19:03:32;6.78;;;3.45;;
45762;SDS011;37512;52.408;13.356;2023-07-29T19:07:34;6.15;;;3.85;;
45762;SDS011;37512;52.408;13.356;2023-07-29T19:11:36;6.05;;;4.00;;
45762;SDS011;37512;52.408;13.356;2023-07-29T19:15:38;6.30;;;3.60;;
45762;SDS011;37512;52.408;13.356;2023-07-29T19:19:40;5.22;;;3.83;;
45762;SDS011;37512;52.408;13.356;2023-07-29T19:23:42;7.97;;;4.40;;
45762;SDS011;37512;52.408;13.356;2023-07-29T19:27:44;5.70;;;3.95;;
45762;SDS011;37512;52.408;13.356;2023-07-29T19:31:45;5.13;;;3.90;;
45762;SDS011;37512;52.408;13.356;2023-07-29T19:35:52;5.72;;;3.80;;
45762;SDS011;37512;52.408;13.356;2023-07-29T19:39:55;6.50;;;4.60;;
45762;SDS011;37512;52.408;13.356;2023-07-29T19:43:57;8.57;;;4.45;;
45762;SDS011;37512;52.408;13.356;2023-07-29T19:48:17;7.95;;;4.03;;
45762;SDS011;37512;52.408;13.356;2023-07-29T19:52:18;4.88;;;3.90;;
45762;SDS011;37512;52.408;13.356;2023-07-29T19:56:20;9.82;;;4.72;;
45762;SDS011;37512;52.408;13.356;2023-07-29T20:00:21;6.07;;;4.40;;
45762;SDS011;37512;52.408;13.356;2023-07-29T20:04:23;7.75;;;5.72;;
45762;SDS011;37512;52.408;13.356;2023-07-29T20:08:24;8.43;;;5.78;;
45762;SDS011;37512;52.408;13.356;2023-07-29T20:12:26;9.07;;;7.22;;
45762;SDS011;37512;52.408;13.356;2023-07-29T20:16:28;7.75;;;6.53;;
45762;SDS011;37512;52.408;13.356;2023-07-29T20:20:29;11.00;;;6.07;;
45762;SDS011;37512;52.408;13.356;2023-07-29T20:24:31;11.70;;;6.13;;
45762;SDS011;37512;52.408;13.356;2023-07-29T20:28:33;9.32;;;5.13;;
45762;SDS011;37512;52.408;13.356;2023-07-29T20:32:34;7.28;;;5.65;;
45762;SDS011;37512;52.408;13.356;2023-07-29T20:36:37;7.93;;;5.55;;
45762;SDS011;37512;52.408;13.356;2023-07-29T20:40:39;6.18;;;5.20;;
45762;SDS011;37512;52.408;13.356;2023-07-29T20:44:40;5.97;;;4.80;;
45762;SDS011;37512;52.408;13.356;2023-07-29T20:48:42;7.47;;;4.50;;
45762;SDS011;37512;52.408;13.356;2023-07-29T20:52:44;5.45;;;4.88;;
45762;SDS011;37512;52.408;13.356;2023-07-29T20:56:45;6.60;;;4.70;;
45762;SDS011;37512;52.408;13.356;2023-07-29T21:00:47;14.48;;;8.23;;
45762;SDS011;37512;52.408;13.356;2023-07-29T21:04:49;10.13;;;5.28;;
45762;SDS011;37512;52.408;13.356;2023-07-29T21:08:51;6.43;;;4.80;;
45762;SDS011;37512;52.408;13.356;2023-07-29T21:12:53;8.30;;;6.07;;
45762;SDS011;37512;52.408;13.356;2023-07-29T21:16:55;5.57;;;4.32;;
45762;SDS011;37512;52.408;13.356;2023-07-29T21:20:57;9.48;;;5.20;;
45762;SDS011;37512;52.408;13.356;2023-07-29T21:24:58;10.50;;;4.72;;
45762;SDS011;37512;52.408;13.356;2023-07-29T21:29:00;9.10;;;5.22;;
45762;SDS011;37512;52.408;13.356;2023-07-29T21:33:01;13.88;;;7.85;;
45762;SDS011;37512;52.408;13.356;2023-07-29T21:37:04;7.68;;;5.50;;
45762;SDS011;37512;52.408;13.356;2023-07-29T21:41:08;5.65;;;5.05;;
45762;SDS011;37512;52.408;13.356;2023-07-29T21:45:10;6.68;;;5.35;;
45762;SDS011;37512;52.408;13.356;2023-07-29T21:49:12;7.30;;;5.53;;
45762;SDS011;37512;52.408;13.356;2023-07-29T21:53:14;6.90;;;5.68;;
45762;SDS011;37512;52.408;13.356;2023-07-29T21:57:15;8.20;;;5.72;;
45762;SDS011;37512;52.408;13.356;2023-07-29T22:01:17;12.23;;;5.72;;
45762;SDS011;37512;52.408;13.356;2023-07-29T22:05:19;7.38;;;5.55;;
45762;SDS011;37512;52.408;13.356;2023-07-29T22:09:21;7.90;;;6.53;;
45762;SDS011;37512;52.408;13.356;2023-07-29T22:13:22;9.38;;;6.63;;
45762;SDS011;37512;52.408;13.356;2023-07-29T22:17:24;9.63;;;7.50;;
45762;SDS011;37512;52.408;13.356;2023-07-29T22:21:26;12.40;;;8.25;;
45762;SDS011;37512;52.408;13.356;2023-07-29T22:25:28;10.25;;;7.78;;
45762;SDS011;37512;52.408;13.356;2023-07-29T22:29:29;10.88;;;6.97;;
45762;SDS011;37512;52.408;13.356;2023-07-29T22:33:31;10.77;;;7.35;;
45762;SDS011;37512;52.408;13.356;2023-07-29T22:37:34;10.45;;;6.40;;
45762;SDS011;37512;52.408;13.356;2023-07-29T22:41:35;14.00;;;6.00;;
45762;SDS011;37512;52.408;13.356;2023-07-29T22:45:37;10.68;;;5.97;;
45762;SDS011;37512;52.408;13.356;2023-07-29T22:49:39;11.38;;;5.50;;
45762;SDS011;37512;52.408;13.356;2023-07-29T22:53:42;10.15;;;6.22;;
45762;SDS011;37512;52.408;13.356;2023-07-29T22:57:44;7.20;;;6.05;;
45762;SDS011;37512;52.408;13.356;2023-07-29T23:01:45;6.68;;;5.38;;
45762;SDS011;37512;52.408;13.356;2023-07-29T23:05:47;10.82;;;5.22;;
45762;SDS011;37512;52.408;13.356;2023-07-29T23:09:49;7.75;;;5.10;;
45762;SDS011;37512;52.408;13.356;2023-07-29T23:13:50;6.40;;;4.95;;
45762;SDS011;37512;52.408;13.356;2023-07-29T23:17:52;7.80;;;5.22;;
45762;SDS011;37512;52.408;13.356;2023-07-29T23:21:54;10.85;;;5.85;;
45762;SDS011;37512;52.408;13.356;2023-07-29T23:25:55;18.08;;;6.60;;
45762;SDS011;37512;52.408;13.356;2023-07-29T23:29:57;6.97;;;4.93;;
45762;SDS011;37512;52.408;13.356;2023-07-29T23:33:58;7.25;;;4.82;;
45762;SDS011;37512;52.408;13.356;2023-07-29T23:38:00;8.70;;;5.35;;
45762;SDS011;37512;52.408;13.356;2023-07-29T23:42:02;9.32;;;5.40;;
45762;SDS011;37512;52.408;13.356;2023-07-29T23:46:04;7.88;;;4.93;;
45762;SDS011;37512;52.408;13.356;2023-07-29T23:50:07;11.13;;;5.18;;
45762;SDS011;37512;52.408;13.356;2023-07-29T23:54:09;6.47;;;5.40;;
45762;SDS011;37512;52.408;13.356;2023-07-29T23:58:11;7.72;;;5.55;;
